createdAt,value
2022-11-28T00:00:46.182Z,4.75
2022-11-28T00:04:51.971Z,3.13
2022-11-28T00:08:54.951Z,3.53
2022-11-28T00:12:56.776Z,4.30
2022-11-28T00:16:58.605Z,4.45
2022-11-28T00:21:09.690Z,6.40
2022-11-28T00:25:11.510Z,5.07
2022-11-28T00:29:13.363Z,4.78
2022-11-28T00:33:15.177Z,2.42
2022-11-28T00:37:17.016Z,3.75
2022-11-28T00:41:24.618Z,3.25
2022-11-28T00:45:26.569Z,3.03
2022-11-28T00:49:28.449Z,4.90
2022-11-28T00:53:30.822Z,4.78
2022-11-28T00:57:32.689Z,7.47
2022-11-28T01:01:38.185Z,4.60
2022-11-28T01:05:41.792Z,5.03
2022-11-28T01:09:43.903Z,3.30
2022-11-28T01:13:45.819Z,2.65
2022-11-28T01:17:47.825Z,3.22
2022-11-28T01:21:50.101Z,5.38
2022-11-28T01:25:51.981Z,7.68
2022-11-28T01:29:53.909Z,6.88
2022-11-28T01:33:56.744Z,21.55
2022-11-28T01:37:58.595Z,13.75
2022-11-28T01:42:00.425Z,9.43
2022-11-28T01:46:03.588Z,3.67
2022-11-28T01:50:07.108Z,15.57
2022-11-28T01:54:08.999Z,22.10
2022-11-28T01:58:12.745Z,28.95
2022-11-28T02:02:21.796Z,26.30
2022-11-28T02:06:25.135Z,31.75
2022-11-28T02:10:36.245Z,64.80
2022-11-28T02:15:06.651Z,61.30
2022-11-28T02:19:36.691Z,34.20
2022-11-28T02:23:57.005Z,35.08
2022-11-28T02:28:26.096Z,23.13
2022-11-28T02:33:02.802Z,15.23
2022-11-28T02:37:12.479Z,16.75
2022-11-28T02:41:43.527Z,7.25
2022-11-28T02:45:53.335Z,7.40
2022-11-28T02:50:17.190Z,2.78
2022-11-28T02:54:22.213Z,4.60
2022-11-28T02:58:24.282Z,5.72
2022-11-28T03:02:30.337Z,9.65
2022-11-28T03:06:53.343Z,4.07
2022-11-28T03:11:19.811Z,2.17
2022-11-28T03:15:28.936Z,2.90
2022-11-28T03:19:32.853Z,3.20
2022-11-28T03:23:56.608Z,2.45
2022-11-28T03:28:18.636Z,6.35
2022-11-28T03:32:25.439Z,2.17
2022-11-28T03:36:31.668Z,3.58
2022-11-28T03:40:39.397Z,2.90
2022-11-28T03:45:03.914Z,3.75
2022-11-28T03:49:09.506Z,5.03
2022-11-28T03:53:26.719Z,3.15
2022-11-28T03:57:44.895Z,3.90
2022-11-28T04:01:52.671Z,3.15
2022-11-28T04:05:57.447Z,4.10
2022-11-28T04:10:15.021Z,3.88
2022-11-28T04:14:26.493Z,3.53
2022-11-28T04:19:00.464Z,5.75
2022-11-28T04:23:08.953Z,2.83
2022-11-28T04:27:17.486Z,3.40
2022-11-28T04:31:22.535Z,2.63
2022-11-28T04:35:33.830Z,2.47
2022-11-28T04:39:37.679Z,2.80
2022-11-28T04:43:51.972Z,2.45
2022-11-28T04:47:54.592Z,3.80
2022-11-28T04:52:22.182Z,6.00
2022-11-28T04:57:28.623Z,4.40
2022-11-28T05:01:32.442Z,4.18
2022-11-28T05:05:43.636Z,3.20
2022-11-28T05:09:45.453Z,3.72
2022-11-28T05:13:47.852Z,4.22
2022-11-28T05:17:49.667Z,9.38
2022-11-28T05:21:53.246Z,1.92
2022-11-28T05:25:55.062Z,2.70
2022-11-28T05:29:56.895Z,3.92
2022-11-28T05:33:58.797Z,3.10
2022-11-28T05:38:00.587Z,2.97
2022-11-28T05:42:02.443Z,2.55
2022-11-28T05:46:07.441Z,2.17
2022-11-28T05:50:09.694Z,2.30
2022-11-28T05:54:12.065Z,2.60
2022-11-28T05:58:13.949Z,4.22
2022-11-28T06:02:15.856Z,3.80
2022-11-28T06:06:20.294Z,5.43
2022-11-28T06:10:22.661Z,5.63
2022-11-28T06:14:24.504Z,3.25
2022-11-28T06:18:26.524Z,3.80
2022-11-28T06:22:28.351Z,5.93
2022-11-28T06:26:30.331Z,3.42
2022-11-28T06:30:32.177Z,5.00
2022-11-28T06:34:34.649Z,5.70
2022-11-28T06:38:36.597Z,7.53
2022-11-28T06:42:38.526Z,7.07
2022-11-28T06:46:40.405Z,3.50
2022-11-28T06:50:42.233Z,4.22
2022-11-28T06:54:44.760Z,5.75
2022-11-28T06:58:47.201Z,3.67
2022-11-28T07:02:49.080Z,6.20
2022-11-28T07:06:50.915Z,4.75
2022-11-28T07:10:52.745Z,3.08
2022-11-28T07:14:54.647Z,4.05
2022-11-28T07:18:58.093Z,3.25
2022-11-28T07:22:59.932Z,13.20
2022-11-28T07:27:01.756Z,8.30
2022-11-28T07:31:12.769Z,7.18
2022-11-28T07:35:14.649Z,3.75
2022-11-28T07:39:17.604Z,5.18
2022-11-28T07:43:19.418Z,5.45
2022-11-28T07:47:21.948Z,4.63
2022-11-28T07:51:27.012Z,2.97
2022-11-28T07:55:28.917Z,2.15
2022-11-28T07:59:30.912Z,4.32
2022-11-28T08:03:32.738Z,3.47
2022-11-28T08:07:34.652Z,1.95
2022-11-28T08:11:36.706Z,7.10
2022-11-28T08:15:39.996Z,3.50
2022-11-28T08:19:41.862Z,4.65
2022-11-28T08:23:45.307Z,4.80
2022-11-28T08:27:47.145Z,2.00
2022-11-28T08:31:49.004Z,4.80
2022-11-28T08:35:52.097Z,4.13
2022-11-28T08:39:53.936Z,4.03
2022-11-28T08:43:55.806Z,3.05
2022-11-28T08:47:59.076Z,3.20
2022-11-28T08:52:00.871Z,2.63
2022-11-28T08:56:03.359Z,6.70
2022-11-28T09:00:06.333Z,2.70
2022-11-28T09:04:08.251Z,2.42
2022-11-28T09:08:11.926Z,2.80
2022-11-28T09:12:13.926Z,2.58
2022-11-28T09:16:16.403Z,2.67
2022-11-28T09:20:18.321Z,3.83
2022-11-28T09:24:20.148Z,4.75
2022-11-28T09:28:21.988Z,3.95
2022-11-28T09:32:23.901Z,2.08
2022-11-28T09:36:25.774Z,3.80
2022-11-28T09:40:44.718Z,5.78
2022-11-28T09:45:00.434Z,2.60
2022-11-28T09:49:08.230Z,1.80
2022-11-28T09:53:40.442Z,2.03
2022-11-28T09:57:50.262Z,7.63
2022-11-28T10:02:17.900Z,6.35
2022-11-28T10:06:33.875Z,6.32
2022-11-28T10:10:54.271Z,5.25
2022-11-28T10:15:24.661Z,8.27
2022-11-28T10:19:54.266Z,3.25
2022-11-28T10:24:07.090Z,4.53
2022-11-28T10:28:39.694Z,15.10
2022-11-28T10:32:44.576Z,4.53
2022-11-28T10:36:56.493Z,10.23
2022-11-28T10:41:12.804Z,7.85
2022-11-28T10:45:36.724Z,5.63
2022-11-28T10:49:54.958Z,6.10
2022-11-28T10:54:05.503Z,6.38
2022-11-28T10:58:39.909Z,5.38
2022-11-28T11:02:51.779Z,38.00
2022-11-28T11:07:19.106Z,9.40
2022-11-28T11:15:33.772Z,5.72
2022-11-28T11:19:38.859Z,2.33
2022-11-28T11:23:40.865Z,3.55
2022-11-28T11:27:54.921Z,4.20
2022-11-28T11:32:03.731Z,3.42
2022-11-28T11:36:24.434Z,3.03
2022-11-28T11:40:29.271Z,3.85
2022-11-28T11:44:34.929Z,2.80
2022-11-28T11:48:51.185Z,3.28
2022-11-28T11:53:12.524Z,2.78
2022-11-28T11:57:32.508Z,2.50
2022-11-28T12:01:36.404Z,2.22
2022-11-28T12:10:23.927Z,3.13
2022-11-28T12:14:33.335Z,2.58
2022-11-28T12:18:44.077Z,4.75
2022-11-28T12:23:06.879Z,6.20
2022-11-28T12:27:43.890Z,8.63
2022-11-28T12:31:51.887Z,7.25
2022-11-28T12:36:32.753Z,11.35
2022-11-28T12:40:43.970Z,5.88
2022-11-28T12:45:27.359Z,4.53
2022-11-28T12:49:38.625Z,6.15
2022-11-28T12:53:55.478Z,5.95
2022-11-28T12:58:04.127Z,28.40
2022-11-28T13:02:14.309Z,24.58
2022-11-28T13:06:30.062Z,48.60
2022-11-28T13:10:59.779Z,5.75
2022-11-28T13:15:18.000Z,6.18
2022-11-28T13:19:44.254Z,11.95
2022-11-28T13:23:48.807Z,12.10
2022-11-28T13:28:04.166Z,8.43
2022-11-28T13:32:39.660Z,6.10
2022-11-28T13:46:01.458Z,6.22
2022-11-28T13:50:22.524Z,6.63
2022-11-28T13:54:24.382Z,3.70
2022-11-28T13:58:41.559Z,7.68
2022-11-28T14:02:51.249Z,7.25
2022-11-28T14:07:00.000Z,7.40
2022-11-28T14:11:32.805Z,4.78
2022-11-28T14:16:13.281Z,3.97
2022-11-28T14:20:28.825Z,8.40
2022-11-28T14:25:12.312Z,19.08
2022-11-28T14:29:36.974Z,9.48
2022-11-28T14:33:42.651Z,6.78
2022-11-28T14:37:52.805Z,6.95
2022-11-28T14:42:06.852Z,5.82
2022-11-28T14:46:28.380Z,4.43
2022-11-28T14:50:30.468Z,5.03
2022-11-28T14:54:35.580Z,4.20
2022-11-28T14:58:38.218Z,4.82
2022-11-28T15:03:01.695Z,3.67
2022-11-28T15:07:07.850Z,6.15
2022-11-28T15:12:08.398Z,3.90
2022-11-28T15:16:15.660Z,5.53
2022-11-28T15:20:38.908Z,2.92
2022-11-28T15:24:40.948Z,2.53
2022-11-28T15:28:43.647Z,0.60
2022-11-28T15:32:46.129Z,0.75
2022-11-28T15:36:53.104Z,20.17
2022-11-28T15:40:56.121Z,14.88
2022-11-28T15:45:08.588Z,1.77
2022-11-28T15:49:43.230Z,5.57
2022-11-28T15:53:45.015Z,1.60
2022-11-28T15:57:46.849Z,8.93
2022-11-28T16:01:48.946Z,3.13
2022-11-28T16:05:53.186Z,4.82
2022-11-28T16:10:01.920Z,18.65
2022-11-28T16:14:11.354Z,10.23
2022-11-28T16:18:16.857Z,23.08
2022-11-28T16:22:20.846Z,15.50
2022-11-28T16:26:37.047Z,9.93
2022-11-28T16:30:43.115Z,9.18
2022-11-28T16:34:53.035Z,7.63
2022-11-28T16:39:06.812Z,8.70
2022-11-28T16:43:25.041Z,8.50
2022-11-28T16:47:29.777Z,5.38
2022-11-28T16:51:35.298Z,5.70
2022-11-28T16:55:38.530Z,5.63
2022-11-28T16:59:41.479Z,9.18
2022-11-28T17:03:49.620Z,7.80
2022-11-28T17:07:52.943Z,5.45
2022-11-28T17:12:07.929Z,6.00
2022-11-28T17:16:24.192Z,9.85
2022-11-28T17:20:26.731Z,9.13
2022-11-28T17:24:33.517Z,5.55
2022-11-28T17:28:35.762Z,9.40
2022-11-28T17:32:37.595Z,3.80
2022-11-28T17:36:39.459Z,7.55
2022-11-28T17:40:42.337Z,6.07
2022-11-28T17:44:44.313Z,5.63
2022-11-28T17:48:46.262Z,5.50
2022-11-28T17:52:48.116Z,6.53
2022-11-28T17:56:51.579Z,8.68
2022-11-28T18:00:59.922Z,4.50
2022-11-28T18:05:02.553Z,12.98
2022-11-28T18:09:11.685Z,12.73
2022-11-28T18:13:16.411Z,3.63
2022-11-28T18:17:18.299Z,4.13
2022-11-28T18:21:20.168Z,4.28
2022-11-28T18:25:22.247Z,5.40
2022-11-28T18:29:24.125Z,4.30
2022-11-28T18:33:25.930Z,3.47
2022-11-28T18:37:27.795Z,3.38
2022-11-28T18:41:30.070Z,10.82
2022-11-28T18:45:33.378Z,9.95
2022-11-28T18:49:35.242Z,6.07
2022-11-28T18:53:37.123Z,8.20
2022-11-28T18:57:39.257Z,13.27
2022-11-28T19:01:41.438Z,5.15
2022-11-28T19:05:43.348Z,5.63
2022-11-28T19:09:45.664Z,4.53
2022-11-28T19:13:48.445Z,2.63
2022-11-28T19:17:50.361Z,4.13
2022-11-28T19:21:52.230Z,4.20
2022-11-28T19:25:54.061Z,3.05
2022-11-28T19:29:55.912Z,8.18
2022-11-28T19:34:01.229Z,4.18
2022-11-28T19:38:03.569Z,6.28
2022-11-28T19:42:05.484Z,4.05
2022-11-28T19:46:08.369Z,4.25
2022-11-28T19:50:10.526Z,6.78
2022-11-28T19:54:12.377Z,4.35
2022-11-28T19:58:14.293Z,5.85
2022-11-28T20:02:16.216Z,6.07
2022-11-28T20:06:21.852Z,3.72
2022-11-28T20:10:24.048Z,6.07
2022-11-28T20:14:26.549Z,3.70
2022-11-28T20:18:28.387Z,5.05
2022-11-28T20:22:30.855Z,8.30
2022-11-28T20:26:37.024Z,5.55
2022-11-28T20:30:38.939Z,5.93
2022-11-28T20:34:40.754Z,4.03
2022-11-28T20:38:42.630Z,5.63
2022-11-28T20:42:44.498Z,3.90
2022-11-28T20:46:46.562Z,5.50
2022-11-28T20:50:48.390Z,4.05
2022-11-28T20:54:50.190Z,5.03
2022-11-28T20:58:52.631Z,5.90
2022-11-28T21:02:54.533Z,3.78
2022-11-28T21:06:56.381Z,5.53
2022-11-28T21:10:58.305Z,4.35
2022-11-28T21:15:00.168Z,5.68
2022-11-28T21:19:07.784Z,4.20
2022-11-28T21:23:10.801Z,5.78
2022-11-28T21:27:12.625Z,5.75
2022-11-28T21:31:24.022Z,5.22
2022-11-28T21:35:25.899Z,11.15
2022-11-28T21:39:28.126Z,8.18
2022-11-28T21:43:30.287Z,6.20
2022-11-28T21:47:32.130Z,5.30
2022-11-28T21:51:33.945Z,5.45
2022-11-28T21:55:37.043Z,7.00
2022-11-28T21:59:38.882Z,8.38
2022-11-28T22:03:41.937Z,8.82
2022-11-28T22:07:43.796Z,4.55
2022-11-28T22:11:45.647Z,7.15
2022-11-28T22:15:47.502Z,5.25
2022-11-28T22:19:51.214Z,5.47
2022-11-28T22:23:53.129Z,5.88
2022-11-28T22:27:55.033Z,5.53
2022-11-28T22:31:56.952Z,5.95
2022-11-28T22:36:11.394Z,8.18
2022-11-28T22:40:14.035Z,8.02
2022-11-28T22:44:15.913Z,6.28
2022-11-28T22:48:17.729Z,8.20
2022-11-28T22:52:19.611Z,9.05
2022-11-28T22:56:22.021Z,5.38
2022-11-28T23:00:23.894Z,6.85
2022-11-28T23:04:25.728Z,5.35
2022-11-28T23:08:29.958Z,5.88
2022-11-28T23:12:31.805Z,4.63
2022-11-28T23:16:38.884Z,8.85
2022-11-28T23:20:40.792Z,7.18
2022-11-28T23:24:42.853Z,7.38
2022-11-28T23:28:45.846Z,9.55
2022-11-28T23:32:47.668Z,6.43
2022-11-28T23:36:49.532Z,8.45
2022-11-28T23:40:56.146Z,6.68
2022-11-28T23:44:58.005Z,9.15
2022-11-28T23:48:59.858Z,7.85
2022-11-28T23:53:01.748Z,8.65
2022-11-28T23:57:03.996Z,8.68
